Map

Track Data

SID SEASON NUMBER BASIN SUBBASIN NAME ISO_TIME NATURE LAT LON WMO_WIND WMO_PRES WMO_AGENCY TRACK_TYPE DIST2LAND LANDFALL IFLAG USA_AGENCY USA_ATCF_ID USA_LAT USA_LON USA_RECORD USA_STATUS USA_WIND USA_PRES USA_SSHS USA_R34_NE USA_R34_SE USA_R34_SW USA_R34_NW USA_R50_NE USA_R50_SE USA_R50_SW USA_R50_NW USA_R64_NE USA_R64_SE USA_R64_SW USA_R64_NW USA_POCI USA_ROCI USA_RMW USA_EYE TOKYO_LAT TOKYO_LON TOKYO_GRADE TOKYO_WIND TOKYO_PRES TOKYO_R50_DIR TOKYO_R50_LONG TOKYO_R50_SHORT TOKYO_R30_DIR TOKYO_R30_LONG TOKYO_R30_SHORT TOKYO_LAND CMA_LAT CMA_LON CMA_CAT CMA_WIND CMA_PRES HKO_LAT HKO_LON HKO_CAT HKO_WIND HKO_PRES NEWDELHI_LAT NEWDELHI_LON NEWDELHI_GRADE NEWDELHI_WIND NEWDELHI_PRES NEWDELHI_CI NEWDELHI_DP NEWDELHI_POCI REUNION_LAT REUNION_LON REUNION_TYPE REUNION_WIND REUNION_PRES REUNION_TNUM REUNION_CI REUNION_RMW REUNION_R34_NE REUNION_R34_SE REUNION_R34_SW REUNION_R34_NW REUNION_R50_NE REUNION_R50_SE REUNION_R50_SW REUNION_R50_NW REUNION_R64_NE REUNION_R64_SE REUNION_R64_SW REUNION_R64_NW BOM_LAT BOM_LON BOM_TYPE BOM_WIND BOM_PRES BOM_TNUM BOM_CI BOM_RMW BOM_R34_NE BOM_R34_SE BOM_R34_SW BOM_R34_NW BOM_R50_NE BOM_R50_SE BOM_R50_SW BOM_R50_NW BOM_R64_NE BOM_R64_SE BOM_R64_SW BOM_R64_NW BOM_ROCI BOM_POCI BOM_EYE BOM_POS_METHOD BOM_PRES_METHOD NADI_LAT NADI_LON NADI_CAT NADI_WIND NADI_PRES WELLINGTON_LAT WELLINGTON_LON WELLINGTON_WIND WELLINGTON_PRES DS824_LAT DS824_LON DS824_STAGE DS824_WIND DS824_PRES TD9636_LAT TD9636_LON TD9636_STAGE TD9636_WIND TD9636_PRES TD9635_LAT TD9635_LON TD9635_WIND TD9635_PRES TD9635_ROCI NEUMANN_LAT NEUMANN_LON NEUMANN_CLASS NEUMANN_WIND NEUMANN_PRES MLC_LAT MLC_LON MLC_CLASS MLC_WIND MLC_PRES USA_GUST BOM_GUST BOM_GUST_PER REUNION_GUST REUNION_GUST_PER USA_SEAHGT USA_SEARAD_NE USA_SEARAD_SE USA_SEARAD_SW USA_SEARAD_NW STORM_SPEED STORM_DIR
1946052S12060 1946 14 SI MM NOT_NAMED 1946-02-21 06:00:00 NR -11.6000 60.1000 reunion main 985 982 _____O________ -1 -11.6000 60.1000 99 9.90000 2 258
1946052S12060 1946 14 SI MM NOT_NAMED 1946-02-21 09:00:00 NR -11.6199 60.0030 main 982 979 _____P________ -1 -11.6199 60.0030 99 2 258
1946052S12060 1946 14 SI MM NOT_NAMED 1946-02-21 12:00:00 NR -11.6415 59.9010 main 979 966 _____P________ -1 -11.6415 59.9010 99 2 257
1946052S12060 1946 14 SI MM NOT_NAMED 1946-02-21 15:00:00 NR -11.6664 59.7889 main 966 964 _____P________ -1 -11.6664 59.7889 99 2 257
1946052S12060 1946 14 SI MM NOT_NAMED 1946-02-21 18:00:00 NR -11.6964 59.6617 main 964 959 _____P________ -1 -11.6964 59.6617 99 3 256
1946052S12060 1946 14 SI MM NOT_NAMED 1946-02-21 21:00:00 NR -11.7331 59.5143 main 959 946 _____P________ -1 -11.7331 59.5143 99 3 255
1946052S12060 1946 14 SI MM NOT_NAMED 1946-02-22 00:00:00 NR -11.7781 59.3416 main 944 942 _____P________ -1 -11.7781 59.3416 99 4 255
1946052S12060 1946 14 SI MM NOT_NAMED 1946-02-22 03:00:00 NR -11.8332 59.1385 main 940 926 _____P________ -1 -11.8332 59.1385 99 4 254
1946052S12060 1946 14 SI MM NOT_NAMED 1946-02-22 06:00:00 NR -11.9000 58.9000 reunion main 926 911 _____O________ -1 -11.9000 58.9000 99 9.90000 5 254
1946052S12060 1946 14 SI MM NOT_NAMED 1946-02-22 09:00:00 NR -11.9799 58.6238 main 911 897 _____P________ -1 -11.9799 58.6238 99 6 253
1946052S12060 1946 14 SI MM NOT_NAMED 1946-02-22 12:00:00 NR -12.0741 58.3195 main 897 874 _____P________ -1 -12.0741 58.3195 99 6 252
1946052S12060 1946 14 SI MM NOT_NAMED 1946-02-22 15:00:00 NR -12.1835 57.9994 main 874 840 _____P________ -1 -12.1835 57.9994 99 7 249
1946052S12060 1946 14 SI MM NOT_NAMED 1946-02-22 18:00:00 NR -12.3093 57.6761 main 840 806 _____P________ -1 -12.3093 57.6761 99 7 247
1946052S12060 1946 14 SI MM NOT_NAMED 1946-02-22 21:00:00 NR -12.4527 57.3620 main 804 769 _____P________ -1 -12.4527 57.3620 99 7 243
1946052S12060 1946 14 SI MM NOT_NAMED 1946-02-23 00:00:00 NR -12.6147 57.0696 main 769 731 _____P________ -1 -12.6147 57.0696 99 6 237
1946052S12060 1946 14 SI MM NOT_NAMED 1946-02-23 03:00:00 NR -12.7967 56.8114 main 731 702 _____P________ -1 -12.7967 56.8114 99 6 230
1946052S12060 1946 14 SI MM NOT_NAMED 1946-02-23 06:00:00 NR -13.0000 56.6000 reunion main 702 674 _____O________ -1 -13.0000 56.6000 99 9.90000 6 221
1946052S12060 1946 14 SI MM NOT_NAMED 1946-02-23 09:00:00 NR -13.2175 56.4394 main 674 656 _____P________ -1 -13.2175 56.4394 99 5 211
1946052S12060 1946 14 SI MM NOT_NAMED 1946-02-23 12:00:00 NR -13.4577 56.3186 main 653 636 _____P________ -1 -13.4577 56.3186 99 5 202
1946052S12060 1946 14 SI MM NOT_NAMED 1946-02-23 15:00:00 NR -13.7175 56.2369 main 636 628 _____P________ -1 -13.7175 56.2369 99 6 192
1946052S12060 1946 14 SI MM NOT_NAMED 1946-02-23 18:00:00 NR -13.9936 56.1939 main 628 621 _____P________ -1 -13.9936 56.1939 99 6 183
1946052S12060 1946 14 SI MM NOT_NAMED 1946-02-23 21:00:00 NR -14.2831 56.1892 main 621 616 _____P________ -1 -14.2831 56.1892 99 6 178
1946052S12060 1946 14 SI MM NOT_NAMED 1946-02-24 00:00:00 NR -14.5828 56.2222 main 616 595 _____P________ -1 -14.5828 56.2222 99 6 171
1946052S12060 1946 14 SI MM NOT_NAMED 1946-02-24 03:00:00 NR -14.8895 56.2927 main 595 560 _____P________ -1 -14.8895 56.2927 99 6 165
1946052S12060 1946 14 SI MM NOT_NAMED 1946-02-24 06:00:00 NR -15.2000 56.4000 reunion main 560 523 _____O________ -1 -15.2000 56.4000 99 9.90000 7 155
1946052S12060 1946 14 SI MM NOT_NAMED 1946-02-24 09:00:00 NR -15.5318 56.5985 main 523 475 _____P________ -1 -15.5318 56.5985 99 8 147
1946052S12060 1946 14 SI MM NOT_NAMED 1946-02-24 12:00:00 NR -15.8738 56.8479 main 475 438 _____P________ -1 -15.8738 56.8479 99 9 143
1946052S12060 1946 14 SI MM NOT_NAMED 1946-02-24 15:00:00 NR -16.2182 57.1268 main 438 402 _____P________ -1 -16.2182 57.1268 99 9 142
1946052S12060 1946 14 SI MM NOT_NAMED 1946-02-24 18:00:00 NR -16.5569 57.4135 main 391 358 _____P________ -1 -16.5569 57.4135 99 9 141
1946052S12060 1946 14 SI MM NOT_NAMED 1946-02-24 21:00:00 NR -16.8821 57.6863 main 358 325 _____P________ -1 -16.8821 57.6863 99 8 142
1946052S12060 1946 14 SI MM NOT_NAMED 1946-02-25 00:00:00 NR -17.1860 57.9232 main 325 303 _____P________ -1 -17.1860 57.9232 99 7 146
1946052S12060 1946 14 SI MM NOT_NAMED 1946-02-25 03:00:00 NR -17.4612 58.1018 main 293 273 _____P________ -1 -17.4612 58.1018 99 6 153
1946052S12060 1946 14 SI MM NOT_NAMED 1946-02-25 06:00:00 NR -17.7000 58.2000 reunion main 273 249 _____O________ -1 -17.7000 58.2000 99 9.90000 4 174
1946052S12060 1946 14 SI MM NOT_NAMED 1946-02-25 09:00:00 NR -17.8924 58.1401 main 249 237 _____P________ -1 -17.8924 58.1401 99 4 208
1946052S12060 1946 14 SI MM NOT_NAMED 1946-02-25 12:00:00 NR -18.0508 58.0033 main 225 212 _____P________ -1 -18.0508 58.0033 99 4 228
1946052S12060 1946 14 SI MM NOT_NAMED 1946-02-25 15:00:00 NR -18.1790 57.8043 main 212 201 _____P________ -1 -18.1790 57.8043 99 5 241
1946052S12060 1946 14 SI MM NOT_NAMED 1946-02-25 18:00:00 NR -18.2808 57.5580 main 201 191 _____P________ -1 -18.2808 57.5580 99 5 250
1946052S12060 1946 14 SI MM NOT_NAMED 1946-02-25 21:00:00 NR -18.3599 57.2795 main 191 191 _____P________ -1 -18.3599 57.2795 99 6 256
1946052S12060 1946 14 SI MM NOT_NAMED 1946-02-26 00:00:00 NR -18.4201 56.9836 main 197 193 _____P________ -1 -18.4201 56.9836 99 6 259
1946052S12060 1946 14 SI MM NOT_NAMED 1946-02-26 03:00:00 NR -18.4655 56.6854 main 197 197 _____P________ -1 -18.4655 56.6854 99 6 262
1946052S12060 1946 14 SI MM NOT_NAMED 1946-02-26 06:00:00 NR -18.5000 56.4000 reunion main 212 212 _____O________ -1 -18.5000 56.4000 99 9.90000 5 259
1946052S12060 1946 14 SI MM NOT_NAMED 1946-02-26 09:00:00 NR -18.5642 56.1676 main 216 216 _____P________ -1 -18.5642 56.1676 99 5 255
1946052S12060 1946 14 SI MM NOT_NAMED 1946-02-26 12:00:00 NR -18.6161 55.9366 main 237 237 _____P________ -1 -18.6161 55.9366 99 4 258
1946052S12060 1946 14 SI MM NOT_NAMED 1946-02-26 15:00:00 NR -18.6543 55.7111 main 245 245 _____P________ -1 -18.6543 55.7111 99 4 262
1946052S12060 1946 14 SI MM NOT_NAMED 1946-02-26 18:00:00 NR -18.6778 55.4947 main 257 257 _____P________ -1 -18.6778 55.4947 99 4 266
1946052S12060 1946 14 SI MM NOT_NAMED 1946-02-26 21:00:00 NR -18.6852 55.2916 main 257 257 _____P________ -1 -18.6852 55.2916 99 4 270
1946052S12060 1946 14 SI MM NOT_NAMED 1946-02-27 00:00:00 NR -18.6755 55.1055 main 258 258 _____P________ -1 -18.6755 55.1055 99 3 276
1946052S12060 1946 14 SI MM NOT_NAMED 1946-02-27 03:00:00 NR -18.6475 54.9403 main 271 271 _____P________ -1 -18.6475 54.9403 99 3 285
1946052S12060 1946 14 SI MM NOT_NAMED 1946-02-27 06:00:00 NR -18.6000 54.8000 reunion main 273 273 _____O________ -1 -18.6000 54.8000 99 9.90000 3 296
1946052S12060 1946 14 SI MM NOT_NAMED 1946-02-27 09:00:00 NR -18.5325 54.6872 main 286 286 _____P________ -1 -18.5325 54.6872 99 2 309
1946052S12060 1946 14 SI MM NOT_NAMED 1946-02-27 12:00:00 NR -18.4469 54.5995 main 299 299 _____P________ -1 -18.4469 54.5995 99 2 322
1946052S12060 1946 14 SI MM NOT_NAMED 1946-02-27 15:00:00 NR -18.3460 54.5333 main 313 313 _____P________ -1 -18.3460 54.5333 99 2 333
1946052S12060 1946 14 SI MM NOT_NAMED 1946-02-27 18:00:00 NR -18.2322 54.4851 main 324 324 _____P________ -1 -18.2322 54.4851 99 3 342
1946052S12060 1946 14 SI MM NOT_NAMED 1946-02-27 21:00:00 NR -18.1081 54.4513 main 335 335 _____P________ -1 -18.1081 54.4513 99 3 347
1946052S12060 1946 14 SI MM NOT_NAMED 1946-02-28 00:00:00 NR -17.9763 54.4282 main 348 348 _____P________ -1 -17.9763 54.4282 99 3 352
1946052S12060 1946 14 SI MM NOT_NAMED 1946-02-28 03:00:00 NR -17.8395 54.4123 main 370 370 _____P________ -1 -17.8395 54.4123 99 3 356
1946052S12060 1946 14 SI MM NOT_NAMED 1946-02-28 06:00:00 NR -17.7000 54.4000 reunion main 381 _____O________ -1 -17.7000 54.4000 99 9.90000 3 0

About IBTrACS Database

This database is a web-friendly format of International Best Track Archive for Climate Stewardship (IBTrACS), a global best track data archive curated by NOAA dating back to 1842.

Updated: 2021-10-25